LUKK/KIV METAR and TAF weather

Enter ICAO airport designator
Station Type Date Time Source
LUKK METAR 2019/04/18 10:30 UTC NOAA

LUKK 181030Z 02010KT 9999 FEW022 SCT042 11/06 Q1027 R26/CLRD// NOSIG


Station Type Date Time Source
LUKK Decoded METAR 2019/04/18 10:30 UTC NOAA

Chisinau International Airport, Moldova (LUKK) 46-55-40N 028-55-51E
Apr 18, 2019 - 06:30 AM EDT / 2019.04.18 1030 UTC
Wind: from the NNE (020 degrees) at 12 MPH (10 KT):0
Visibility: greater than 7 mile(s):0
Sky conditions: partly cloudy
Temperature: 51 F (11 C)
Dew Point: 42 F (6 C)
Relative Humidity: 71%
Pressure (altimeter): 30.33 in. Hg (1027 hPa)
ob: LUKK 181030Z 02010KT 9999 FEW022 SCT042 11/06 Q1027 R26/CLRD// NOSIG
cycle: 10

Station Type Date Time Source
LUKK TAF 2019/04/18 06:21 UTC NOAA

TAF LUKK 180520Z 1806/1906 06010KT 9999 SCT040
BECMG 1815/1817 34006KT

Example: see airport list